createdAt,value
2022-09-18T00:01:26.934Z,10.71
2022-09-18T00:03:57.139Z,10.75
2022-09-18T00:06:26.497Z,10.75
2022-09-18T00:08:55.084Z,10.72
2022-09-18T00:11:23.790Z,10.63
2022-09-18T00:13:51.577Z,10.52
2022-09-18T00:16:20.837Z,10.43
2022-09-18T00:18:48.188Z,10.39
2022-09-18T00:21:21.516Z,10.38
2022-09-18T00:23:48.775Z,10.36
2022-09-18T00:26:18.440Z,10.29
2022-09-18T00:28:46.430Z,10.25
2022-09-18T00:31:16.702Z,10.18
2022-09-18T00:33:44.038Z,10.13
2022-09-18T00:36:13.766Z,10.10
2022-09-18T00:38:41.457Z,10.15
2022-09-18T00:41:13.916Z,10.21
2022-09-18T00:43:41.189Z,10.31
2022-09-18T00:46:19.651Z,10.37
2022-09-18T00:49:09.191Z,10.43
2022-09-18T00:51:37.523Z,10.46
2022-09-18T00:54:17.358Z,10.49
2022-09-18T00:56:44.995Z,10.52
2022-09-18T00:59:13.483Z,10.51
2022-09-18T01:01:40.673Z,10.56
2022-09-18T01:04:14.240Z,10.55
2022-09-18T01:06:51.676Z,10.58
2022-09-18T01:09:36.134Z,10.59
2022-09-18T01:12:44.160Z,10.60
2022-09-18T01:15:22.801Z,10.63
2022-09-18T01:17:56.661Z,10.66
2022-09-18T01:20:54.599Z,10.70
2022-09-18T01:23:36.936Z,10.70
2022-09-18T01:26:25.564Z,10.70
2022-09-18T01:28:57.996Z,10.71
2022-09-18T01:31:31.827Z,10.70
2022-09-18T01:34:20.256Z,10.70
2022-09-18T01:36:54.556Z,10.72
2022-09-18T01:39:36.432Z,10.73
2022-09-18T01:42:04.115Z,10.79
2022-09-18T01:44:32.817Z,10.78
2022-09-18T01:47:05.220Z,10.75
2022-09-18T01:49:39.809Z,10.73
2022-09-18T01:52:25.577Z,10.74
2022-09-18T01:54:56.019Z,10.74
2022-09-18T01:57:28.765Z,10.76
2022-09-18T01:59:57.701Z,10.79
2022-09-18T02:02:44.332Z,10.80
2022-09-18T02:05:15.696Z,10.82
2022-09-18T02:08:23.784Z,10.82
2022-09-18T02:11:01.857Z,10.84
2022-09-18T02:13:36.523Z,10.83
2022-09-18T02:16:09.733Z,10.84
2022-09-18T02:18:41.875Z,10.80
2022-09-18T02:21:13.640Z,10.80
2022-09-18T02:23:42.481Z,10.79
2022-09-18T02:26:12.520Z,10.79
2022-09-18T02:28:40.308Z,10.79
2022-09-18T02:31:07.509Z,10.80
2022-09-18T02:33:36.638Z,10.78
2022-09-18T02:36:15.964Z,10.78
2022-09-18T02:39:21.416Z,10.77
2022-09-18T02:42:03.755Z,10.77
2022-09-18T02:44:36.957Z,10.76
2022-09-18T02:47:13.440Z,10.76
2022-09-18T02:50:19.240Z,10.78
2022-09-18T02:52:57.555Z,10.78
2022-09-18T02:55:31.858Z,10.80
2022-09-18T02:58:03.896Z,10.79
2022-09-18T03:00:32.540Z,10.78
2022-09-18T03:03:02.215Z,10.80
2022-09-18T03:05:37.878Z,10.84
2022-09-18T03:08:05.036Z,10.84
2022-09-18T03:10:32.305Z,10.86
2022-09-18T03:12:59.304Z,10.86
2022-09-18T03:15:26.436Z,10.85
2022-09-18T03:17:53.456Z,10.83
2022-09-18T03:20:20.717Z,10.82
2022-09-18T03:22:49.678Z,10.82
2022-09-18T03:25:17.482Z,10.81
2022-09-18T03:27:44.696Z,10.80
2022-09-18T03:30:17.218Z,10.76
2022-09-18T03:32:44.301Z,10.74
2022-09-18T03:35:11.403Z,10.70
2022-09-18T03:37:38.581Z,10.71
2022-09-18T03:40:08.917Z,10.71
2022-09-18T03:42:35.966Z,10.71
2022-09-18T03:45:03.518Z,10.71
2022-09-18T03:47:35.563Z,10.73
2022-09-18T03:50:04.865Z,10.76
2022-09-18T03:52:34.476Z,10.78
2022-09-18T03:55:10.377Z,10.79
2022-09-18T03:57:57.756Z,10.82
2022-09-18T04:00:50.995Z,10.81
2022-09-18T04:03:28.974Z,10.81
2022-09-18T04:06:21.595Z,10.82
2022-09-18T04:09:14.555Z,10.80
2022-09-18T04:11:47.661Z,10.76
2022-09-18T04:14:14.918Z,10.72
2022-09-18T04:16:41.959Z,10.71
2022-09-18T04:19:09.337Z,10.72
2022-09-18T04:21:39.037Z,10.73
2022-09-18T04:24:07.456Z,10.73
2022-09-18T04:26:36.739Z,10.74
2022-09-18T04:29:04.967Z,10.74
2022-09-18T04:31:32.733Z,10.74
2022-09-18T04:34:04.962Z,10.76
2022-09-18T04:36:33.677Z,10.76
2022-09-18T04:39:01.018Z,10.80
2022-09-18T04:41:28.559Z,10.82
2022-09-18T04:43:56.838Z,10.84
2022-09-18T04:46:24.141Z,10.88
2022-09-18T04:48:54.106Z,10.93
2022-09-18T04:51:25.004Z,10.94
2022-09-18T04:53:52.037Z,11.00
2022-09-18T04:56:19.357Z,11.04
2022-09-18T04:58:49.781Z,11.07
2022-09-18T05:01:17.317Z,11.07
2022-09-18T05:03:44.423Z,11.10
2022-09-18T05:06:18.846Z,11.16
2022-09-18T05:08:46.459Z,11.20
2022-09-18T05:11:13.556Z,11.21
2022-09-18T05:13:41.416Z,11.21
2022-09-18T05:16:14.465Z,11.24
2022-09-18T05:18:45.684Z,11.27
2022-09-18T05:21:12.795Z,11.29
2022-09-18T05:23:40.127Z,11.28
2022-09-18T05:26:07.238Z,11.26
2022-09-18T05:28:34.499Z,11.28
2022-09-18T05:31:02.054Z,11.27
2022-09-18T05:33:41.933Z,11.32
2022-09-18T05:36:09.438Z,11.36
2022-09-18T05:38:36.853Z,11.40
2022-09-18T05:41:06.276Z,11.41
2022-09-18T05:43:33.422Z,11.44
2022-09-18T05:46:02.194Z,11.46
2022-09-18T05:48:55.419Z,11.48
2022-09-18T05:51:22.488Z,11.47
2022-09-18T05:53:49.913Z,11.52
2022-09-18T05:56:22.920Z,11.56
2022-09-18T05:58:50.333Z,11.56
2022-09-18T06:01:17.654Z,11.63
2022-09-18T06:04:10.313Z,11.68
2022-09-18T06:06:48.956Z,11.71
2022-09-18T06:09:16.798Z,11.72
2022-09-18T06:11:43.778Z,11.77
2022-09-18T06:14:11.074Z,11.78
2022-09-18T06:16:42.085Z,11.78
2022-09-18T06:19:10.817Z,11.79
2022-09-18T06:21:38.135Z,11.83
2022-09-18T06:24:07.833Z,11.81
2022-09-18T06:26:56.220Z,11.84
2022-09-18T06:29:23.433Z,11.87
2022-09-18T06:31:59.594Z,11.87
2022-09-18T06:34:27.766Z,11.83
2022-09-18T06:36:59.439Z,11.88
2022-09-18T06:39:44.996Z,11.89
2022-09-18T06:42:28.135Z,11.90
2022-09-18T06:45:10.654Z,11.96
2022-09-18T06:47:41.709Z,12.07
2022-09-18T06:50:10.525Z,12.08
2022-09-18T06:52:37.958Z,12.08
2022-09-18T06:55:06.249Z,12.10
2022-09-18T06:57:34.220Z,12.12
2022-09-18T07:00:01.759Z,12.14
2022-09-18T07:02:36.555Z,12.17
2022-09-18T07:05:23.124Z,12.21
2022-09-18T07:07:50.158Z,12.23
2022-09-18T07:10:17.398Z,12.27
2022-09-18T07:12:48.851Z,12.30
2022-09-18T07:15:20.840Z,12.29
2022-09-18T07:17:47.887Z,12.32
2022-09-18T07:20:18.509Z,12.27
2022-09-18T07:23:01.871Z,12.24
2022-09-18T07:25:41.412Z,12.26
2022-09-18T07:28:10.392Z,12.28
2022-09-18T07:30:44.265Z,12.29
2022-09-18T07:33:11.433Z,12.31
2022-09-18T07:35:44.864Z,12.36
2022-09-18T07:38:13.815Z,12.42
2022-09-18T07:40:53.833Z,12.53
2022-09-18T07:43:28.801Z,12.64
2022-09-18T07:45:56.005Z,12.62
2022-09-18T07:48:24.495Z,12.64
2022-09-18T07:50:59.146Z,12.73
2022-09-18T07:53:26.955Z,12.80
2022-09-18T07:55:57.910Z,12.81
2022-09-18T07:58:27.019Z,12.85
2022-09-18T08:01:15.995Z,12.86
2022-09-18T08:03:50.338Z,12.91
2022-09-18T08:06:20.739Z,12.97
2022-09-18T08:08:56.080Z,13.10
2022-09-18T08:11:34.137Z,13.16
2022-09-18T08:14:25.376Z,13.26
2022-09-18T08:17:13.876Z,13.31
2022-09-18T08:20:01.770Z,13.40
2022-09-18T08:23:06.408Z,13.58
2022-09-18T08:25:37.399Z,13.73
2022-09-18T08:28:06.322Z,13.80
2022-09-18T08:30:38.457Z,13.93
2022-09-18T08:33:10.904Z,13.94
2022-09-18T08:35:38.260Z,13.82
2022-09-18T08:38:21.036Z,13.89
2022-09-18T08:41:42.320Z,13.93
2022-09-18T08:44:18.148Z,13.84
2022-09-18T08:46:50.114Z,13.91
2022-09-18T08:49:23.556Z,14.04
2022-09-18T08:52:15.077Z,14.16
2022-09-18T08:55:02.621Z,14.06
2022-09-18T08:57:59.381Z,14.06
2022-09-18T09:01:00.651Z,14.20
2022-09-18T09:04:01.447Z,14.32
2022-09-18T09:06:55.194Z,14.28
2022-09-18T09:09:38.417Z,14.18
2022-09-18T09:12:38.523Z,14.20
2022-09-18T09:15:12.220Z,14.20
2022-09-18T09:18:05.597Z,14.02
2022-09-18T09:20:54.286Z,14.06
2022-09-18T09:23:29.557Z,14.11
2022-09-18T09:26:11.615Z,14.15
2022-09-18T09:29:18.759Z,14.10
2022-09-18T09:32:23.579Z,14.07
2022-09-18T09:35:17.193Z,14.03
2022-09-18T09:38:47.329Z,14.01
2022-09-18T09:41:17.518Z,14.03
2022-09-18T09:43:54.896Z,14.09
2022-09-18T09:46:55.533Z,14.08
2022-09-18T09:49:27.878Z,14.16
2022-09-18T09:52:14.601Z,14.27
2022-09-18T09:54:41.601Z,14.40
2022-09-18T09:57:21.907Z,14.50
2022-09-18T10:00:14.697Z,14.62
2022-09-18T10:03:33.157Z,14.69
2022-09-18T10:06:24.514Z,14.89
2022-09-18T10:09:34.445Z,14.99
2022-09-18T10:12:30.902Z,15.02
2022-09-18T10:15:12.172Z,14.96
2022-09-18T10:17:41.539Z,15.06
2022-09-18T10:20:16.219Z,15.13
2022-09-18T10:22:43.620Z,15.15
2022-09-18T10:25:28.511Z,15.17
2022-09-18T10:27:55.725Z,15.24
2022-09-18T10:30:22.764Z,15.28
2022-09-18T10:32:53.418Z,15.32
2022-09-18T10:35:31.217Z,15.30
2022-09-18T10:37:59.447Z,15.39
2022-09-18T10:40:37.857Z,15.53
2022-09-18T10:43:07.698Z,15.64
2022-09-18T10:45:41.936Z,15.76
2022-09-18T10:48:32.014Z,16.02
2022-09-18T10:51:01.112Z,16.04
2022-09-18T10:54:05.139Z,16.11
2022-09-18T10:56:50.033Z,16.19
2022-09-18T10:59:34.177Z,16.29
2022-09-18T11:02:06.772Z,16.29
2022-09-18T11:04:35.904Z,16.39
2022-09-18T11:07:07.616Z,16.30
2022-09-18T11:09:38.899Z,16.28
2022-09-18T11:12:28.513Z,16.42
2022-09-18T11:15:07.985Z,16.46
2022-09-18T11:17:43.054Z,16.43
2022-09-18T11:20:25.042Z,16.44
2022-09-18T11:23:21.593Z,16.54
2022-09-18T11:26:12.398Z,16.65
2022-09-18T11:28:40.673Z,16.88
2022-09-18T11:31:17.298Z,17.09
2022-09-18T11:33:51.085Z,17.22
2022-09-18T11:36:28.401Z,17.37
2022-09-18T11:38:59.993Z,17.52
2022-09-18T11:41:34.643Z,17.58
2022-09-18T11:44:26.762Z,17.56
2022-09-18T11:47:04.535Z,17.69
2022-09-18T11:49:36.889Z,17.68
2022-09-18T11:52:19.334Z,17.75
2022-09-18T11:55:07.965Z,17.82
2022-09-18T11:58:12.919Z,17.96
2022-09-18T12:00:49.098Z,18.00
2022-09-18T12:03:27.089Z,18.00
2022-09-18T12:06:15.895Z,18.06
2022-09-18T12:08:50.520Z,18.18
2022-09-18T12:11:44.247Z,18.33
2022-09-18T12:14:35.538Z,18.42
2022-09-18T12:17:26.245Z,18.40
2022-09-18T12:19:58.452Z,18.31
2022-09-18T12:22:31.527Z,18.29
2022-09-18T12:25:01.194Z,18.29
2022-09-18T12:28:11.780Z,18.21
2022-09-18T12:30:49.060Z,18.20
2022-09-18T12:33:54.975Z,17.94
2022-09-18T12:36:40.959Z,17.08
2022-09-18T12:39:30.114Z,16.30
2022-09-18T12:42:25.483Z,15.68
2022-09-18T12:44:58.241Z,15.20
2022-09-18T12:47:34.506Z,14.62
2022-09-18T12:50:01.524Z,14.08
2022-09-18T12:53:09.766Z,13.64
2022-09-18T12:56:12.721Z,13.23
2022-09-18T12:59:10.672Z,12.92
2022-09-18T13:01:45.229Z,12.70
2022-09-18T13:04:21.021Z,12.67
2022-09-18T13:07:11.603Z,12.68
2022-09-18T13:09:44.312Z,12.69
2022-09-18T13:12:22.499Z,12.75
2022-09-18T13:14:54.312Z,12.83
2022-09-18T13:17:37.991Z,12.90
2022-09-18T13:20:16.708Z,13.00
2022-09-18T13:22:45.230Z,13.07
2022-09-18T13:25:34.543Z,13.11
2022-09-18T13:28:04.063Z,13.12
2022-09-18T13:30:32.181Z,13.02
2022-09-18T13:33:00.225Z,12.90
2022-09-18T13:35:32.354Z,12.84
2022-09-18T13:38:17.904Z,12.83
2022-09-18T13:40:47.882Z,12.90
2022-09-18T13:43:16.309Z,13.00
2022-09-18T13:45:43.513Z,13.10
2022-09-18T13:48:19.066Z,13.16
2022-09-18T13:51:00.667Z,13.22
2022-09-18T13:53:43.942Z,13.24
2022-09-18T13:56:13.184Z,13.24
2022-09-18T13:58:57.423Z,13.32
2022-09-18T14:01:43.369Z,13.34
2022-09-18T14:04:41.355Z,13.40
2022-09-18T14:07:26.934Z,13.48
2022-09-18T14:09:59.797Z,13.53
2022-09-18T14:12:33.814Z,13.52
2022-09-18T14:15:25.217Z,13.50
2022-09-18T14:18:17.417Z,13.53
2022-09-18T14:20:46.662Z,13.64
2022-09-18T14:23:35.637Z,13.59
2022-09-18T14:26:08.245Z,13.56
2022-09-18T14:28:35.889Z,13.54
2022-09-18T14:31:14.155Z,13.43
2022-09-18T14:33:43.030Z,13.34
2022-09-18T14:36:14.607Z,13.26
2022-09-18T14:38:41.999Z,13.25
2022-09-18T14:41:25.098Z,13.23
2022-09-18T14:43:55.979Z,13.23
2022-09-18T14:46:25.167Z,13.16
2022-09-18T14:48:52.814Z,13.14
2022-09-18T14:51:25.191Z,13.11
2022-09-18T14:53:54.715Z,13.09
2022-09-18T14:56:33.316Z,13.08
2022-09-18T14:59:04.481Z,13.10
2022-09-18T15:01:36.391Z,13.08
2022-09-18T15:04:04.018Z,13.09
2022-09-18T15:06:50.867Z,13.02
2022-09-18T15:09:25.027Z,12.99
2022-09-18T15:12:02.195Z,13.02
2022-09-18T15:14:40.529Z,13.01
2022-09-18T15:17:28.707Z,13.01
2022-09-18T15:20:14.365Z,13.01
2022-09-18T15:22:41.920Z,12.98
2022-09-18T15:25:13.500Z,12.96
2022-09-18T15:27:41.746Z,12.95
2022-09-18T15:30:24.545Z,12.89
2022-09-18T15:33:01.326Z,12.85
2022-09-18T15:35:32.320Z,12.84
2022-09-18T15:38:03.464Z,12.81
2022-09-18T15:40:37.105Z,12.78
2022-09-18T15:43:06.788Z,12.74
2022-09-18T15:45:35.843Z,12.73
2022-09-18T15:48:35.031Z,12.70
2022-09-18T15:51:17.025Z,12.63
2022-09-18T15:54:05.758Z,12.63
2022-09-18T15:56:36.817Z,12.69
2022-09-18T15:59:06.841Z,12.64
2022-09-18T16:01:36.808Z,12.60
2022-09-18T16:04:15.999Z,12.55
2022-09-18T16:06:51.215Z,12.52
2022-09-18T16:09:33.536Z,12.51
2022-09-18T16:12:01.355Z,12.47
2022-09-18T16:14:46.233Z,12.41
2022-09-18T16:17:35.972Z,12.41
2022-09-18T16:20:25.708Z,12.38
2022-09-18T16:22:55.726Z,12.37
2022-09-18T16:25:26.922Z,12.34
2022-09-18T16:27:56.871Z,12.32
2022-09-18T16:30:25.459Z,12.31
2022-09-18T16:33:18.007Z,12.29
2022-09-18T16:35:46.492Z,12.30
2022-09-18T16:38:13.910Z,12.28
2022-09-18T16:40:43.847Z,12.27
2022-09-18T16:47:48.837Z,12.24
2022-09-18T16:50:18.657Z,12.20
2022-09-18T16:52:45.920Z,12.16
2022-09-18T16:55:13.577Z,12.11
2022-09-18T16:57:40.970Z,12.09
2022-09-18T17:00:10.547Z,12.08
2022-09-18T17:02:37.937Z,12.02
2022-09-18T17:05:05.439Z,11.99
2022-09-18T17:07:32.382Z,11.94
2022-09-18T17:09:59.607Z,11.89
2022-09-18T17:12:26.621Z,11.84
2022-09-18T17:14:53.750Z,11.80
2022-09-18T17:17:20.737Z,11.75
2022-09-18T17:19:47.985Z,11.75
2022-09-18T17:22:15.029Z,11.71
2022-09-18T17:24:42.440Z,11.68
2022-09-18T17:27:09.413Z,11.66
2022-09-18T17:29:36.385Z,11.62
2022-09-18T17:32:03.537Z,11.58
2022-09-18T17:34:30.530Z,11.55
2022-09-18T17:36:57.812Z,11.54
2022-09-18T17:39:25.678Z,11.52
2022-09-18T17:41:52.713Z,11.50
2022-09-18T17:44:20.293Z,11.48
2022-09-18T17:46:51.472Z,11.48
2022-09-18T17:49:19.559Z,11.47
2022-09-18T17:51:47.529Z,11.49
2022-09-18T17:54:14.731Z,11.49
2022-09-18T17:56:41.642Z,11.50
2022-09-18T17:59:11.132Z,11.48
2022-09-18T18:01:42.049Z,11.47
2022-09-18T18:04:09.689Z,11.46
2022-09-18T18:06:37.413Z,11.47
2022-09-18T18:09:06.716Z,11.46
2022-09-18T18:11:34.140Z,11.46
2022-09-18T18:14:01.233Z,11.45
2022-09-18T18:16:30.764Z,11.44
2022-09-18T18:19:04.517Z,11.41
2022-09-18T18:21:33.384Z,11.40
2022-09-18T18:24:03.901Z,11.39
2022-09-18T18:26:31.258Z,11.38
2022-09-18T18:28:58.939Z,11.38
2022-09-18T18:31:26.229Z,11.37
2022-09-18T18:33:54.854Z,11.36
2022-09-18T18:36:24.719Z,11.35
2022-09-18T18:38:53.931Z,11.34
2022-09-18T18:41:22.096Z,11.32
2022-09-18T18:43:56.229Z,11.33
2022-09-18T18:46:26.438Z,11.33
2022-09-18T18:49:01.948Z,11.31
2022-09-18T18:51:42.988Z,11.30
2022-09-18T18:54:10.630Z,11.27
2022-09-18T18:56:38.838Z,11.23
2022-09-18T18:59:09.183Z,11.20
2022-09-18T19:01:36.429Z,11.18
2022-09-18T19:04:07.488Z,11.14
2022-09-18T19:06:40.059Z,11.11
2022-09-18T19:09:10.621Z,11.08
2022-09-18T19:11:42.877Z,11.07
2022-09-18T19:17:44.872Z,11.01
2022-09-18T19:20:12.070Z,10.97
2022-09-18T19:22:39.274Z,10.92
2022-09-18T19:25:06.990Z,10.89
2022-09-18T19:27:34.589Z,10.88
2022-09-18T19:30:01.816Z,10.82
2022-09-18T19:32:29.459Z,10.79
2022-09-18T19:34:56.859Z,10.77
2022-09-18T19:37:24.817Z,10.74
2022-09-18T19:39:52.711Z,10.72
2022-09-18T19:42:20.442Z,10.68
2022-09-18T19:44:50.767Z,10.66
2022-09-18T19:47:21.035Z,10.62
2022-09-18T19:49:49.996Z,10.58
2022-09-18T19:52:20.587Z,10.54
2022-09-18T19:54:48.554Z,10.50
2022-09-18T19:57:15.919Z,10.47
2022-09-18T19:59:43.496Z,10.44
2022-09-18T20:02:15.096Z,10.40
2022-09-18T20:04:42.147Z,10.42
2022-09-18T20:07:09.906Z,10.38
2022-09-18T20:09:36.982Z,10.35
2022-09-18T20:12:04.371Z,10.36
2022-09-18T20:14:31.434Z,10.34
2022-09-18T20:16:58.620Z,10.34
2022-09-18T20:19:26.214Z,10.35
2022-09-18T20:21:53.205Z,10.38
2022-09-18T20:24:20.460Z,10.39
2022-09-18T20:26:47.454Z,10.40
2022-09-18T20:29:17.327Z,10.42
2022-09-18T20:31:46.139Z,10.44
2022-09-18T20:34:14.000Z,10.45
2022-09-18T20:36:40.950Z,10.45
2022-09-18T20:39:08.804Z,10.44
2022-09-18T20:41:35.746Z,10.45
2022-09-18T20:44:05.833Z,10.46
2022-09-18T20:46:37.208Z,10.47
2022-09-18T20:49:05.285Z,10.47
2022-09-18T20:51:34.857Z,10.48
2022-09-18T20:54:04.558Z,10.46
2022-09-18T20:56:34.247Z,10.47
2022-09-18T20:59:05.062Z,10.47
2022-09-18T21:01:38.063Z,10.47
2022-09-18T21:04:05.348Z,10.45
2022-09-18T21:06:33.846Z,10.43
2022-09-18T21:09:08.239Z,10.43
2022-09-18T21:11:40.202Z,10.44
2022-09-18T21:14:08.793Z,10.47
2022-09-18T21:16:40.589Z,10.44
2022-09-18T21:19:07.564Z,10.47
2022-09-18T21:21:34.687Z,10.44
2022-09-18T21:24:02.663Z,10.42
2022-09-18T21:26:33.113Z,10.44
2022-09-18T21:29:22.776Z,10.45
2022-09-18T21:31:52.800Z,10.46
2022-09-18T21:34:34.028Z,10.46
2022-09-18T21:37:03.243Z,10.47
2022-09-18T21:39:31.447Z,10.47
2022-09-18T21:41:59.810Z,10.46
2022-09-18T21:44:28.620Z,10.47
2022-09-18T21:47:02.111Z,10.47
2022-09-18T21:49:32.914Z,10.48
2022-09-18T21:52:02.547Z,10.49
2022-09-18T21:54:31.045Z,10.44
2022-09-18T21:56:58.192Z,10.41
2022-09-18T21:59:27.663Z,10.37
2022-09-18T22:01:55.315Z,10.36
2022-09-18T22:04:29.946Z,10.33
2022-09-18T22:06:58.292Z,10.33
2022-09-18T22:09:28.548Z,10.33
2022-09-18T22:11:56.516Z,10.33
2022-09-18T22:14:26.249Z,10.33
2022-09-18T22:16:56.475Z,10.31
2022-09-18T22:19:23.504Z,10.30
2022-09-18T22:21:51.233Z,10.30
2022-09-18T22:24:20.401Z,10.29
2022-09-18T22:26:54.829Z,10.32
2022-09-18T22:29:26.698Z,10.32
2022-09-18T22:31:53.735Z,10.38
2022-09-18T22:34:23.274Z,10.36
2022-09-18T22:36:51.058Z,10.35
2022-09-18T22:39:19.718Z,10.36
2022-09-18T22:41:46.690Z,10.36
2022-09-18T22:44:14.796Z,10.35
2022-09-18T22:46:43.768Z,10.32
2022-09-18T22:49:13.800Z,10.38
2022-09-18T22:51:41.334Z,10.46
2022-09-18T22:54:08.843Z,10.51
2022-09-18T22:56:46.643Z,10.54
2022-09-18T22:59:15.914Z,10.56
2022-09-18T23:01:51.101Z,10.57
2022-09-18T23:04:19.801Z,10.54
2022-09-18T23:06:48.028Z,10.51
2022-09-18T23:09:16.615Z,10.48
2022-09-18T23:11:45.446Z,10.44
2022-09-18T23:14:18.735Z,10.41
2022-09-18T23:16:46.427Z,10.38
2022-09-18T23:19:16.040Z,10.34
2022-09-18T23:21:42.984Z,10.35
2022-09-18T23:24:10.688Z,10.35
2022-09-18T23:26:40.943Z,10.34
2022-09-18T23:29:10.204Z,10.32
2022-09-18T23:31:39.576Z,10.31
2022-09-18T23:34:09.423Z,10.29
2022-09-18T23:36:39.385Z,10.26
2022-09-18T23:39:30.223Z,10.24
2022-09-18T23:41:59.366Z,10.24
2022-09-18T23:44:31.347Z,10.20
2022-09-18T23:46:59.402Z,10.19
2022-09-18T23:49:26.928Z,10.15
2022-09-18T23:51:54.685Z,10.12
2022-09-18T23:54:26.926Z,10.09
2022-09-18T23:56:54.915Z,10.06
2022-09-18T23:59:23.505Z,10.00
